Time;durP1;ratioP1;P1;durP2;ratioP2;P2;SDS_P1;SDS_P2;PMS_P1;PMS_P2;Temp;Humidity;BMP_temperature;BMP_pressure;BME280_temperature;BME280_humidity;BME280_pressure;Samples;Min_cycle;Max_cycle;Signal;HPM_P1;HPM_P2
2022/09/08 00:00:15;;;;;;;7.75;4.57;;;14.40;66.60;;;;;;5096321;28;20169;-74
2022/09/08 00:02:40;;;;;;;8.18;4.50;;;14.50;66.70;;;;;;5094943;28;20064;-75
2022/09/08 00:05:08;;;;;;;7.20;4.90;;;14.50;66.80;;;;;;5094717;28;20066;-81
2022/09/08 00:07:35;;;;;;;6.38;4.50;;;14.50;66.80;;;;;;5096085;28;20031;-81
2022/09/08 00:10:02;;;;;;;8.25;5.05;;;14.50;66.60;;;;;;5094881;28;20032;-81
2022/09/08 00:12:28;;;;;;;9.45;4.70;;;14.50;66.90;;;;;;5094676;28;20412;-82
2022/09/08 00:14:55;;;;;;;9.80;5.65;;;14.40;67.20;;;;;;5094653;28;20016;-81
2022/09/08 00:17:20;;;;;;;9.07;5.18;;;14.50;67.40;;;;;;5094531;28;20020;-81
2022/09/08 00:19:46;;;;;;;12.85;5.65;;;14.50;67.50;;;;;;5094604;28;20020;-81
2022/09/08 00:22:12;;;;;;;8.43;4.70;;;14.30;67.70;;;;;;5095741;28;20020;-81
2022/09/08 00:24:37;;;;;;;7.97;4.97;;;14.30;68.00;;;;;;5095747;28;20041;-81
2022/09/08 00:27:03;;;;;;;8.88;4.82;;;14.30;68.70;;;;;;5095690;28;20021;-75
2022/09/08 00:29:29;;;;;;;8.18;5.05;;;14.30;68.20;;;;;;5094669;28;20097;-74
2022/09/08 00:31:54;;;;;;;9.95;5.75;;;14.20;68.20;;;;;;5094285;28;20461;-81
2022/09/08 00:34:20;;;;;;;10.05;5.22;;;14.20;68.50;;;;;;5094275;28;20035;-74
2022/09/08 00:36:46;;;;;;;9.52;5.25;;;14.20;68.90;;;;;;5094449;28;20073;-74
2022/09/08 00:39:12;;;;;;;9.23;5.20;;;14.10;69.50;;;;;;5095453;28;20060;-76
2022/09/08 00:41:37;;;;;;;11.02;5.85;;;14.10;69.90;;;;;;5095501;28;20032;-75
2022/09/08 00:44:39;;;;;;;7.95;5.35;;;14.00;70.30;;;;;;5094084;28;20028;-74
2022/09/08 00:47:18;;;;;;;10.35;6.32;;;14.10;70.30;;;;;;5095302;28;20031;-81
2022/09/08 00:49:47;;;;;;;7.00;5.47;;;14.00;70.50;;;;;;5094035;28;20076;-82
2022/09/08 00:52:13;;;;;;;10.98;5.72;;;14.00;71.20;;;;;;5094064;28;20072;-81
2022/09/08 00:54:39;;;;;;;12.07;5.88;;;13.90;71.50;;;;;;5093917;28;20481;-81
2022/09/08 00:57:05;;;;;;;8.90;5.45;;;13.90;72.10;;;;;;5093955;28;20023;-81
2022/09/08 00:59:36;;;;;;;9.82;5.88;;;13.90;72.10;;;;;;5093895;28;20450;-74
2022/09/08 01:02:23;;;;;;;10.95;6.00;;;13.90;72.40;;;;;;5110988;28;20024;-81
2022/09/08 01:04:50;;;;;;;10.18;6.20;;;13.90;72.70;;;;;;5095126;28;20073;-81
2022/09/08 01:13:06;;;;;;;9.35;6.53;;;13.90;73.30;;;;;;5094815;28;20042;-74
2022/09/08 01:15:32;;;;;;;9.38;6.80;;;13.80;73.80;;;;;;5094881;28;20031;-74
2022/09/08 01:17:58;;;;;;;11.10;6.63;;;13.80;74.30;;;;;;5093479;28;20028;-75
2022/09/08 01:21:01;;;;;;;7.13;5.82;;;13.80;75.70;;;;;;5093260;28;20374;-82
2022/09/08 01:23:33;;;;;;;10.98;6.47;;;13.70;75.10;;;;;;5093581;28;20032;-82
2022/09/08 01:26:40;;;;;;;12.13;6.85;;;13.70;75.40;;;;;;5094673;28;20477;-82
2022/09/08 01:29:08;;;;;;;8.32;6.03;;;13.70;75.80;;;;;;5094458;28;20020;-82
2022/09/08 01:31:39;;;;;;;10.98;7.18;;;13.60;76.20;;;;;;5093239;28;20016;-82
2022/09/08 01:34:05;;;;;;;12.70;6.68;;;13.60;76.40;;;;;;5092913;28;20081;-82
2022/09/08 01:36:31;;;;;;;10.23;7.03;;;13.60;77.10;;;;;;5093075;28;20032;-74
2022/09/08 01:38:56;;;;;;;11.77;7.05;;;13.60;78.30;;;;;;5092937;28;20428;-82
2022/09/08 01:41:22;;;;;;;8.57;6.13;;;13.50;78.10;;;;;;5094129;28;20035;-74
2022/09/08 01:43:48;;;;;;;13.05;7.95;;;13.50;78.70;;;;;;5094149;28;20027;-74
2022/09/08 01:46:14;;;;;;;8.82;6.75;;;13.40;79.30;;;;;;5093023;28;20055;-82
2022/09/08 01:48:39;;;;;;;11.98;7.25;;;13.40;79.00;;;;;;5094011;28;20099;-82
2022/09/08 01:51:07;;;;;;;12.60;7.10;;;13.40;79.20;;;;;;5094189;28;20024;-81
2022/09/08 01:53:33;;;;;;;14.55;7.88;;;13.40;79.50;;;;;;5092506;28;20485;-74
2022/09/08 01:55:59;;;;;;;13.93;7.90;;;13.40;80.40;;;;;;5094190;28;20028;-73
2022/09/08 01:58:25;;;;;;;11.15;7.97;;;13.40;81.20;;;;;;5094032;28;20051;-81
2022/09/08 02:00:51;;;;;;;10.23;7.20;;;13.30;81.90;;;;;;5092622;28;20024;-81
2022/09/08 02:03:16;;;;;;;11.45;7.50;;;13.30;82.30;;;;;;5092404;28;20024;-81
2022/09/08 02:05:43;;;;;;;10.52;7.35;;;13.20;82.70;;;;;;5093981;28;20504;-74
2022/09/08 02:08:10;;;;;;;11.43;8.38;;;13.20;83.60;;;;;;5093929;28;20048;-82
2022/09/08 02:10:37;;;;;;;11.35;7.88;;;13.20;84.10;;;;;;5093567;28;20032;-73
2022/09/08 02:13:03;;;;;;;14.25;8.05;;;13.10;84.10;;;;;;5093773;28;20427;-81
2022/09/08 02:15:30;;;;;;;11.60;7.80;;;13.10;84.20;;;;;;5092410;28;20473;-81
2022/09/08 02:17:57;;;;;;;14.05;8.02;;;13.10;84.50;;;;;;5093720;28;20016;-73
2022/09/08 02:20:23;;;;;;;15.18;7.35;;;13.10;85.10;;;;;;5092244;28;20130;-74
2022/09/08 02:22:49;;;;;;;12.73;7.25;;;13.10;85.10;;;;;;5093747;28;20481;-74
2022/09/08 02:25:15;;;;;;;13.52;8.80;;;13.00;85.80;;;;;;5092231;28;20030;-81
2022/09/08 02:27:40;;;;;;;14.57;8.00;;;13.00;87.20;;;;;;5092275;28;20047;-75
2022/09/08 02:30:07;;;;;;;10.57;7.20;;;13.00;88.30;;;;;;5093578;28;20542;-74
2022/09/08 02:32:34;;;;;;;13.20;8.18;;;13.00;89.30;;;;;;5092214;28;20478;-82
2022/09/08 02:35:00;;;;;;;10.52;7.50;;;12.90;89.60;;;;;;5093410;28;20477;-74
2022/09/08 02:37:25;;;;;;;11.30;7.63;;;12.90;90.50;;;;;;5093529;28;20107;-81
2022/09/08 02:39:51;;;;;;;14.05;8.32;;;12.80;91.60;;;;;;5093188;28;20377;-81
2022/09/08 02:42:16;;;;;;;13.07;7.75;;;12.80;92.00;;;;;;5091997;28;20109;-82
2022/09/08 02:44:42;;;;;;;16.55;7.72;;;12.70;92.90;;;;;;5091940;28;20032;-82
2022/09/08 02:47:08;;;;;;;15.43;8.07;;;12.70;93.40;;;;;;5091971;28;20060;-81
2022/09/08 02:49:34;;;;;;;14.52;8.00;;;12.70;93.30;;;;;;5091675;28;20031;-81
2022/09/08 02:52:00;;;;;;;14.35;8.52;;;12.70;94.00;;;;;;5091959;28;20359;-81
2022/09/08 02:54:25;;;;;;;13.02;7.60;;;12.70;94.00;;;;;;5092961;28;20062;-81
2022/09/08 02:56:51;;;;;;;13.45;8.48;;;12.70;95.40;;;;;;5093316;28;20020;-80
2022/09/08 02:59:17;;;;;;;12.00;8.48;;;12.70;96.50;;;;;;5093093;28;20134;-73
2022/09/08 03:01:43;;;;;;;13.50;8.23;;;12.60;96.90;;;;;;5093341;28;20470;-81
2022/09/08 03:04:10;;;;;;;10.98;7.78;;;12.60;97.80;;;;;;5091738;28;20413;-73
2022/09/08 03:06:37;;;;;;;11.93;7.97;;;12.60;98.30;;;;;;5093259;28;20051;-80
2022/09/08 03:09:03;;;;;;;17.52;8.32;;;12.60;98.10;;;;;;5093224;28;20492;-74
2022/09/08 03:11:30;;;;;;;11.52;7.88;;;12.60;98.50;;;;;;5093047;28;20024;-74
2022/09/08 03:13:56;;;;;;;13.57;8.05;;;12.60;97.70;;;;;;5099547;28;20063;-73
2022/09/08 03:16:21;;;;;;;12.77;8.30;;;12.50;97.40;;;;;;5091824;28;20414;-75
2022/09/08 03:18:48;;;;;;;13.80;8.63;;;12.50;98.40;;;;;;5093068;28;20051;-80
2022/09/08 03:21:14;;;;;;;12.93;7.97;;;12.50;98.10;;;;;;5108730;28;20117;-81
2022/09/08 03:23:40;;;;;;;14.02;8.15;;;12.40;98.20;;;;;;5095749;28;20024;-80
2022/09/08 03:26:14;;;;;;;16.77;8.77;;;12.40;98.40;;;;;;5096965;28;20028;-74
2022/09/08 03:28:41;;;;;;;13.05;8.85;;;12.40;98.70;;;;;;5096855;28;20031;-81
2022/09/08 03:31:08;;;;;;;11.98;8.48;;;12.40;98.20;;;;;;5095660;28;20021;-81
2022/09/08 03:33:34;;;;;;;12.98;8.40;;;12.40;99.20;;;;;;5096804;28;20405;-80
2022/09/08 03:36:01;;;;;;;12.73;9.20;;;12.40;99.20;;;;;;5096734;28;20034;-74
2022/09/08 03:38:27;;;;;;;13.23;8.75;;;12.40;99.70;;;;;;5096619;28;20081;-74
2022/09/08 03:40:53;;;;;;;12.88;8.75;;;12.40;99.70;;;;;;5095469;28;20035;-74
2022/09/08 03:43:19;;;;;;;13.27;8.55;;;12.30;99.90;;;;;;5096851;28;20024;-81
2022/09/08 03:45:46;;;;;;;16.33;8.27;;;12.30;99.90;;;;;;5095599;28;20046;-74
2022/09/08 03:48:13;;;;;;;11.27;8.68;;;12.30;99.90;;;;;;5096615;28;20116;-81
2022/09/08 03:50:39;;;;;;;18.08;9.98;;;12.30;99.90;;;;;;5095153;28;20118;-73
2022/09/08 03:53:05;;;;;;;15.63;8.10;;;12.20;99.90;;;;;;5095011;28;20396;-81
2022/09/08 03:55:31;;;;;;;17.30;10.30;;;12.20;99.90;;;;;;5096381;28;20020;-73
2022/09/08 03:57:58;;;;;;;11.50;8.75;;;12.20;99.90;;;;;;5096476;28;20016;-81
2022/09/08 04:00:24;;;;;;;13.63;8.68;;;12.10;99.90;;;;;;5094965;28;20453;-73
2022/09/08 04:02:50;;;;;;;13.35;9.00;;;12.10;99.90;;;;;;5095141;28;20040;-81
2022/09/08 04:05:15;;;;;;;15.10;9.93;;;12.10;99.90;;;;;;5095929;28;20493;-73
2022/09/08 04:07:41;;;;;;;12.85;8.82;;;12.00;99.90;;;;;;5094848;28;20099;-74
2022/09/08 04:10:07;;;;;;;11.93;8.88;;;11.90;99.90;;;;;;5096277;28;20035;-81
2022/09/08 04:12:34;;;;;;;15.57;9.68;;;11.90;99.90;;;;;;5096111;28;20031;-74
2022/09/08 04:14:59;;;;;;;17.77;10.32;;;11.90;99.90;;;;;;5074541;28;20040;-81
2022/09/08 04:17:25;;;;;;;16.13;10.10;;;11.90;99.90;;;;;;5075752;28;20624;-74
2022/09/08 04:19:51;;;;;;;14.45;9.90;;;11.90;99.90;;;;;;5074367;28;20028;-82
2022/09/08 04:22:19;;;;;;;16.48;10.18;;;11.90;99.90;;;;;;5075526;28;20028;-75
2022/09/08 04:24:45;;;;;;;13.40;9.88;;;11.90;99.90;;;;;;5075698;28;20048;-81
2022/09/08 04:27:11;;;;;;;14.35;8.95;;;11.90;99.90;;;;;;5091105;28;20504;-81
2022/09/08 04:29:37;;;;;;;16.73;10.40;;;11.90;99.90;;;;;;5074397;28;20541;-81
2022/09/08 04:32:03;;;;;;;14.95;10.15;;;11.90;99.90;;;;;;5075416;28;20051;-81
2022/09/08 04:34:28;;;;;;;11.82;8.90;;;11.90;99.90;;;;;;5075209;28;20478;-81
2022/09/08 04:36:54;;;;;;;16.13;9.88;;;11.90;99.90;;;;;;5075345;28;20474;-74
2022/09/08 04:39:20;;;;;;;16.75;9.80;;;12.00;99.90;;;;;;5075299;28;20494;-81
2022/09/08 04:41:46;;;;;;;20.10;9.80;;;12.00;99.90;;;;;;5075219;28;20412;-81
2022/09/08 04:44:12;;;;;;;15.63;9.57;;;12.00;99.90;;;;;;5073984;28;20017;-75
2022/09/08 04:46:38;;;;;;;16.45;9.82;;;12.00;99.90;;;;;;5090720;28;20351;-81
2022/09/08 04:49:04;;;;;;;18.48;10.20;;;12.10;99.90;;;;;;5090628;28;20025;-79
2022/09/08 04:51:31;;;;;;;14.43;9.15;;;12.20;99.90;;;;;;5090755;28;20043;-81
2022/09/08 04:54:01;;;;;;;16.58;9.45;;;12.30;99.90;;;;;;5092777;28;20089;-81
2022/09/08 04:56:28;;;;;;;16.05;9.38;;;12.30;99.90;;;;;;5094998;28;20386;-74
2022/09/08 04:58:54;;;;;;;18.45;9.40;;;12.40;99.90;;;;;;5093971;28;20031;-81
2022/09/08 05:01:23;;;;;;;15.38;9.23;;;12.40;99.90;;;;;;5093758;28;20465;-74
2022/09/08 05:03:54;;;;;;;18.48;10.07;;;12.40;99.90;;;;;;5093649;28;20056;-73
2022/09/08 05:06:20;;;;;;;13.40;8.88;;;12.50;99.90;;;;;;5094984;28;20024;-74
2022/09/08 05:08:49;;;;;;;13.10;8.27;;;12.60;99.90;;;;;;5093762;28;20116;-74
2022/09/08 05:11:15;;;;;;;15.43;9.05;;;12.70;99.90;;;;;;5093605;28;20483;-81
2022/09/08 05:13:41;;;;;;;14.18;9.40;;;12.70;99.90;;;;;;5094779;28;20092;-81
2022/09/08 05:16:10;;;;;;;18.50;9.60;;;12.80;99.90;;;;;;5093527;28;20119;-74
2022/09/08 05:18:36;;;;;;;15.80;8.95;;;12.80;99.90;;;;;;5095645;28;20099;-83
2022/09/08 05:21:02;;;;;;;16.60;9.38;;;12.90;99.90;;;;;;5094743;28;20086;-75
2022/09/08 05:23:28;;;;;;;13.73;8.20;;;13.00;99.90;;;;;;5093539;28;20051;-82
2022/09/08 05:25:59;;;;;;;15.18;9.27;;;13.10;99.90;;;;;;5096752;28;20473;-76
2022/09/08 05:28:27;;;;;;;14.57;8.90;;;13.10;99.90;;;;;;5092632;28;20016;-74
2022/09/08 05:30:52;;;;;;;16.27;9.02;;;13.20;99.90;;;;;;5085277;28;20409;-82
2022/09/08 05:33:18;;;;;;;14.65;9.43;;;13.30;99.90;;;;;;5093805;28;20032;-80
2022/09/08 05:35:44;;;;;;;14.93;8.80;;;13.40;99.90;;;;;;5093176;28;20043;-82
2022/09/08 05:38:10;;;;;;;13.82;8.25;;;13.50;99.90;;;;;;5092476;28;20134;-81
2022/09/08 05:40:36;;;;;;;15.20;8.95;;;13.70;99.90;;;;;;5092906;28;20101;-81
2022/09/08 05:43:02;;;;;;;13.57;8.75;;;13.70;97.90;;;;;;5092369;28;20049;-82
2022/09/08 05:45:28;;;;;;;11.57;8.70;;;13.80;96.30;;;;;;5092876;28;20024;-82
2022/09/08 05:47:54;;;;;;;12.43;9.10;;;13.90;96.80;;;;;;5093756;28;20069;-82
2022/09/08 05:50:20;;;;;;;15.15;9.15;;;14.00;97.20;;;;;;5092755;28;20035;-82
2022/09/08 05:52:45;;;;;;;16.20;10.43;;;14.10;96.80;;;;;;5092634;28;20016;-75
2022/09/08 05:55:11;;;;;;;12.88;8.82;;;14.20;96.60;;;;;;5091396;28;20028;-75
2022/09/08 05:57:39;;;;;;;15.55;9.75;;;14.30;95.30;;;;;;5093134;28;20020;-75
2022/09/08 06:00:06;;;;;;;15.15;8.57;;;14.40;94.20;;;;;;5091891;28;20024;-75
2022/09/08 06:02:32;;;;;;;13.75;9.35;;;14.60;94.50;;;;;;5092306;28;20020;-74
2022/09/08 06:04:58;;;;;;;16.05;8.85;;;14.70;94.10;;;;;;5093686;28;20052;-74
2022/09/08 06:07:23;;;;;;;13.45;9.80;;;14.80;91.20;;;;;;5093587;28;20020;-75
2022/09/08 06:09:49;;;;;;;15.48;9.30;;;14.90;92.30;;;;;;5090813;28;20054;-75
2022/09/08 06:12:15;;;;;;;16.05;10.13;;;15.00;92.00;;;;;;5093737;28;20028;-76
2022/09/08 06:14:40;;;;;;;15.23;9.52;;;15.10;90.40;;;;;;5109334;28;20054;-83
2022/09/08 06:17:06;;;;;;;15.15;9.20;;;15.20;89.10;;;;;;5093722;28;20020;-76
2022/09/08 06:19:32;;;;;;;14.93;9.18;;;15.40;88.10;;;;;;5092285;28;20482;-84
2022/09/08 06:21:58;;;;;;;11.25;9.05;;;15.40;87.80;;;;;;5093717;28;20078;-75
2022/09/08 06:24:24;;;;;;;14.77;9.50;;;15.50;86.90;;;;;;5092075;28;20614;-84
2022/09/08 06:27:17;;;;;;;13.63;9.02;;;15.60;87.40;;;;;;5090230;28;20020;-82
2022/09/08 06:29:59;;;;;;;12.52;8.82;;;15.70;87.50;;;;;;5091280;28;20028;-83
2022/09/08 06:32:34;;;;;;;13.40;8.52;;;15.80;87.70;;;;;;5092894;28;20024;-83
2022/09/08 06:35:12;;;;;;;12.57;8.65;;;16.00;86.40;;;;;;5093541;28;20371;-76
2022/09/08 06:37:43;;;;;;;13.93;9.18;;;16.00;85.50;;;;;;5093300;28;20020;-83
2022/09/08 06:40:14;;;;;;;13.30;8.32;;;16.20;85.70;;;;;;5093465;28;20024;-76
2022/09/08 06:42:50;;;;;;;16.58;9.88;;;16.40;86.40;;;;;;5091957;28;20027;-75
2022/09/08 06:45:28;;;;;;;12.07;8.65;;;16.60;86.20;;;;;;5093484;28;20473;-83
2022/09/08 06:48:24;;;;;;;15.63;9.68;;;16.70;85.00;;;;;;5093094;28;20474;-75
2022/09/08 06:51:09;;;;;;;15.93;9.80;;;16.80;84.50;;;;;;5093354;28;20478;-84
2022/09/08 06:53:46;;;;;;;12.93;9.85;;;16.80;83.50;;;;;;5091578;28;20444;-84
2022/09/08 06:56:30;;;;;;;19.92;9.77;;;16.90;84.20;;;;;;5094984;28;20028;-84
2022/09/08 06:59:01;;;;;;;18.25;10.18;;;17.10;83.90;;;;;;5095942;28;20066;-76
2022/09/08 07:02:01;;;;;;;17.35;9.93;;;17.20;82.80;;;;;;5096185;28;20035;-76
2022/09/08 07:04:51;;;;;;;14.02;8.85;;;17.40;82.00;;;;;;5095814;28;20160;-83
2022/09/08 07:07:17;;;;;;;17.00;9.88;;;17.50;81.50;;;;;;5096049;28;20107;-76
2022/09/08 07:09:58;;;;;;;15.38;9.10;;;17.60;80.90;;;;;;5095679;28;20119;-84
2022/09/08 07:12:50;;;;;;;14.32;9.48;;;17.70;79.00;;;;;;5097311;28;20350;-76
2022/09/08 07:15:38;;;;;;;15.27;9.35;;;18.00;78.50;;;;;;5073479;28;20071;-77
2022/09/08 07:18:15;;;;;;;16.85;10.27;;;18.10;79.40;;;;;;5075571;28;20123;-76
2022/09/08 07:20:41;;;;;;;13.68;9.13;;;18.20;79.10;;;;;;5077010;28;20500;-76
2022/09/08 07:23:19;;;;;;;14.85;9.60;;;18.40;79.90;;;;;;5075455;28;20016;-76
2022/09/08 07:26:01;;;;;;;14.45;8.75;;;18.60;77.10;;;;;;5076533;28;20020;-76
2022/09/08 07:28:37;;;;;;;38.00;11.45;;;18.70;78.00;;;;;;5076424;28;20021;-85
2022/09/08 07:31:04;;;;;;;18.38;10.25;;;18.90;79.00;;;;;;5076555;28;20024;-85
2022/09/08 07:33:40;;;;;;;12.55;8.70;;;19.00;78.10;;;;;;5076431;28;20482;-85
2022/09/08 07:36:21;;;;;;;10.82;8.55;;;19.10;79.80;;;;;;5092302;28;20032;-84
2022/09/08 07:38:54;;;;;;;13.07;9.73;;;19.30;77.00;;;;;;5092178;28;20028;-76
2022/09/08 07:41:21;;;;;;;12.43;9.02;;;19.50;77.90;;;;;;5092224;28;20032;-77
2022/09/08 07:43:57;;;;;;;13.40;9.48;;;19.60;76.90;;;;;;5075179;28;20051;-85
2022/09/08 07:47:07;;;;;;;14.18;9.00;;;19.70;75.00;;;;;;5092068;28;20071;-77
2022/09/08 07:49:47;;;;;;;14.93;9.77;;;19.70;75.30;;;;;;5074971;28;20024;-76
2022/09/08 07:52:41;;;;;;;15.77;10.02;;;20.00;74.40;;;;;;5082047;28;20044;-77
2022/09/08 07:55:20;;;;;;;13.35;8.60;;;20.00;73.60;;;;;;5096423;28;20036;-77
2022/09/08 07:57:51;;;;;;;13.25;9.32;;;20.00;74.20;;;;;;5096552;28;20020;-86
2022/09/08 08:00:41;;;;;;;12.95;8.80;;;20.20;75.30;;;;;;5095130;28;20020;-86
2022/09/08 08:03:21;;;;;;;12.65;9.10;;;20.20;75.10;;;;;;5096413;28;20055;-76
2022/09/08 08:06:23;;;;;;;14.02;9.00;;;20.30;74.40;;;;;;5094925;28;20036;-86
2022/09/08 08:09:14;;;;;;;12.10;8.65;;;20.40;74.90;;;;;;5078463;28;20066;-86
2022/09/08 08:11:58;;;;;;;11.88;9.18;;;20.70;75.60;;;;;;5096418;28;20104;-86
2022/09/08 08:14:31;;;;;;;13.95;9.25;;;20.80;73.00;;;;;;5094651;28;20616;-77
2022/09/08 08:17:31;;;;;;;17.30;9.15;;;20.90;72.80;;;;;;5096228;28;20102;-86
2022/09/08 08:20:16;;;;;;;14.48;9.63;;;21.10;71.90;;;;;;5095753;28;20020;-76
2022/09/08 08:23:06;;;;;;;13.27;9.15;;;21.20;71.10;;;;;;5094882;28;20135;-86
2022/09/08 08:25:56;;;;;;;8.48;7.32;;;21.30;71.40;;;;;;5094726;28;20044;-87
2022/09/08 08:28:22;;;;;;;11.60;8.65;;;21.50;71.50;;;;;;5096070;28;20428;-86
2022/09/08 08:31:06;;;;;;;9.10;7.43;;;21.60;70.90;;;;;;5094339;28;20046;-86
2022/09/08 08:33:36;;;;;;;9.23;7.45;;;21.70;71.40;;;;;;5094503;28;20081;-87
2022/09/08 08:36:06;;;;;;;9.18;7.97;;;21.70;71.00;;;;;;5095928;28;20462;-86
2022/09/08 08:38:37;;;;;;;11.82;8.30;;;21.80;70.90;;;;;;5094343;28;20093;-77
2022/09/08 08:41:13;;;;;;;11.38;7.78;;;21.80;72.00;;;;;;5094209;28;20031;-86
2022/09/08 08:43:57;;;;;;;8.68;7.28;;;22.10;72.50;;;;;;5094261;28;20016;-87
2022/09/08 08:46:23;;;;;;;10.20;7.78;;;22.20;69.50;;;;;;5095605;28;20031;-77
2022/09/08 08:48:49;;;;;;;10.57;7.43;;;22.30;70.10;;;;;;5095594;28;20021;-87
2022/09/08 08:51:51;;;;;;;7.85;7.07;;;22.40;69.10;;;;;;5095350;28;20103;-85
2022/09/08 08:54:40;;;;;;;8.20;7.32;;;22.50;69.70;;;;;;5073795;28;20037;-77
2022/09/08 08:57:27;;;;;;;9.93;7.70;;;22.60;68.90;;;;;;5075242;28;20048;-87
2022/09/08 09:00:11;;;;;;;13.73;8.68;;;22.70;67.70;;;;;;5073445;28;20485;-77
2022/09/08 09:02:55;;;;;;;10.30;8.02;;;22.70;67.10;;;;;;5074031;28;20390;-77
2022/09/08 09:05:27;;;;;;;13.70;9.68;;;22.80;67.50;;;;;;5073764;28;20391;-77
2022/09/08 09:08:28;;;;;;;11.77;8.37;;;22.90;67.70;;;;;;5074882;28;20032;-88
2022/09/08 09:11:12;;;;;;;10.85;9.15;;;23.10;67.50;;;;;;5073405;28;20025;-77
2022/09/08 09:13:50;;;;;;;16.38;14.05;;;23.20;67.30;;;;;;5085231;28;20035;-77
2022/09/08 09:16:22;;;;;;;20.90;18.98;;;23.30;67.00;;;;;;5095143;28;20020;-87
2022/09/08 09:19:03;;;;;;;;;;;23.40;65.60;;;;;;5093583;28;20036;-77
2022/09/08 09:21:51;;;;;;;17.00;15.20;;;23.30;65.20;;;;;;5093453;28;20258;-77
2022/09/08 09:24:45;;;;;;;12.77;10.40;;;23.30;65.70;;;;;;5094997;28;20085;-77
2022/09/08 09:27:29;;;;;;;17.98;14.15;;;23.40;65.50;;;;;;5093509;28;20024;-88
2022/09/08 09:30:20;;;;;;;12.80;10.65;;;23.60;65.90;;;;;;5094545;28;20020;-88
2022/09/08 09:33:09;;;;;;;10.85;9.70;;;23.70;65.00;;;;;;5110208;28;20027;-88
2022/09/08 09:36:12;;;;;;;12.18;9.25;;;23.70;64.70;;;;;;5093310;28;20389;-77
2022/09/08 09:38:47;;;;;;;12.50;10.90;;;23.80;64.20;;;;;;5093085;28;20027;-77
2022/09/08 09:41:37;;;;;;;11.10;8.93;;;23.90;64.40;;;;;;5094348;28;20542;-90
2022/09/08 09:44:18;;;;;;;12.95;8.23;;;23.90;63.40;;;;;;5093132;28;20024;-78
2022/09/08 09:47:11;;;;;;;9.95;8.13;;;23.90;63.90;;;;;;5094711;28;20032;-86
2022/09/08 09:50:14;;;;;;;10.15;7.55;;;24.00;63.40;;;;;;5094643;28;20056;-88
2022/09/08 09:53:06;;;;;;;10.80;7.82;;;24.00;63.10;;;;;;5094228;28;20500;-87
2022/09/08 09:55:53;;;;;;;11.00;9.15;;;23.90;62.90;;;;;;5093013;28;20039;-87
2022/09/08 09:58:29;;;;;;;12.63;8.48;;;24.10;63.60;;;;;;5093625;28;20025;-78
2022/09/08 10:01:22;;;;;;;11.57;9.50;;;24.30;63.70;;;;;;5094159;28;20043;-78
2022/09/08 10:04:25;;;;;;;12.48;8.20;;;24.30;62.50;;;;;;5092860;28;20044;-78
2022/09/08 10:07:15;;;;;;;12.02;8.95;;;24.30;62.60;;;;;;5092701;28;20381;-78
2022/09/08 10:09:44;;;;;;;9.95;8.65;;;24.40;62.60;;;;;;5093872;28;20039;-78
2022/09/08 10:12:20;;;;;;;10.68;9.48;;;24.50;62.40;;;;;;5092578;28;20016;-88
2022/09/08 10:15:29;;;;;;;11.45;9.77;;;24.60;62.40;;;;;;5073541;28;20066;-88
2022/09/08 10:18:16;;;;;;;8.65;7.75;;;24.50;61.80;;;;;;5089792;28;20028;-88
2022/09/08 10:21:22;;;;;;;10.48;7.80;;;24.40;62.70;;;;;;5073363;28;20024;-88
2022/09/08 10:24:10;;;;;;;10.00;8.88;;;24.50;62.70;;;;;;5072108;28;20017;-87
2022/09/08 10:26:35;;;;;;;12.23;8.25;;;24.60;62.40;;;;;;5072051;28;20056;-87
2022/09/08 10:29:04;;;;;;;9.93;8.77;;;24.60;62.10;;;;;;5071935;28;20094;-86
2022/09/08 10:32:05;;;;;;;10.88;8.38;;;24.60;62.30;;;;;;5071640;28;20017;-78
2022/09/08 10:34:51;;;;;;;12.63;7.65;;;24.80;62.80;;;;;;5061747;28;20525;-88
2022/09/08 10:37:39;;;;;;;8.82;7.97;;;24.80;61.60;;;;;;5073350;28;20020;-89
2022/09/08 10:40:42;;;;;;;9.15;8.25;;;24.90;61.90;;;;;;5066756;28;20115;-88
2022/09/08 10:43:30;;;;;;;11.35;8.07;;;24.90;61.60;;;;;;5073389;28;20028;-89
2022/09/08 10:46:11;;;;;;;9.07;7.43;;;24.90;61.60;;;;;;5072434;28;20074;-89
2022/09/08 10:49:12;;;;;;;9.23;8.23;;;25.00;61.70;;;;;;5072156;28;20444;-79
2022/09/08 10:51:38;;;;;;;9.02;8.07;;;25.00;60.80;;;;;;5074807;28;20351;-79
2022/09/08 10:54:41;;;;;;;9.88;8.07;;;25.10;61.40;;;;;;5092149;28;20063;-89
2022/09/08 10:57:35;;;;;;;7.97;7.28;;;25.30;61.30;;;;;;5093357;28;20115;-89
2022/09/08 11:00:19;;;;;;;10.35;8.00;;;25.10;60.60;;;;;;5093249;28;20027;-79
2022/09/08 11:03:03;;;;;;;11.10;7.82;;;25.10;60.50;;;;;;5093345;28;20028;-78
2022/09/08 11:05:46;;;;;;;10.52;8.98;;;25.10;60.00;;;;;;5093216;28;20066;-89
2022/09/08 11:08:39;;;;;;;9.30;8.40;;;25.20;60.40;;;;;;5092287;28;20028;-88
2022/09/08 11:11:27;;;;;;;9.57;8.18;;;25.30;60.50;;;;;;5092201;28;20031;-78
2022/09/08 11:14:02;;;;;;;10.55;8.32;;;25.30;59.70;;;;;;5093075;28;20032;-78
2022/09/08 11:16:44;;;;;;;12.70;9.27;;;25.40;59.70;;;;;;5093163;28;20405;-79
2022/09/08 11:19:28;;;;;;;9.10;8.30;;;25.40;59.50;;;;;;5092187;28;20027;-89
2022/09/08 11:22:16;;;;;;;9.57;8.20;;;25.50;59.10;;;;;;5091932;28;20426;-79
2022/09/08 11:25:04;;;;;;;9.13;8.23;;;25.50;59.00;;;;;;5091911;28;20032;-79
2022/09/08 11:27:53;;;;;;;9.65;8.68;;;25.50;59.20;;;;;;5091798;28;20058;-80
2022/09/08 11:30:22;;;;;;;8.82;7.95;;;25.60;59.00;;;;;;5093344;28;20027;-89
2022/09/08 11:33:09;;;;;;;10.27;8.77;;;25.60;58.30;;;;;;5093153;28;20024;-79
2022/09/08 11:35:54;;;;;;;9.85;8.80;;;25.70;58.00;;;;;;5093008;28;20465;-90
2022/09/08 11:38:48;;;;;;;11.38;9.82;;;25.60;58.10;;;;;;5071347;28;20462;-79
2022/09/08 11:41:43;;;;;;;14.00;9.52;;;25.50;58.00;;;;;;5071617;28;20023;-89
2022/09/08 11:44:30;;;;;;;9.32;8.25;;;25.60;58.10;;;;;;5072665;28;20124;-89
2022/09/08 11:47:33;;;;;;;14.23;9.07;;;25.70;58.20;;;;;;5091944;28;20035;-89
2022/09/08 11:50:17;;;;;;;11.75;8.85;;;25.70;58.60;;;;;;5075105;28;20020;-89
2022/09/08 11:52:55;;;;;;;10.35;9.30;;;25.80;58.60;;;;;;5085733;28;20082;-89
2022/09/08 11:55:39;;;;;;;9.48;8.57;;;25.80;57.80;;;;;;5095485;28;20044;-89
2022/09/08 11:58:34;;;;;;;42.40;13.27;;;25.80;57.60;;;;;;5095059;28;20028;-90
2022/09/08 12:01:14;;;;;;;10.82;8.55;;;25.70;58.10;;;;;;5095389;28;20080;-89
2022/09/08 12:04:01;;;;;;;8.95;7.97;;;25.50;57.50;;;;;;5096113;28;20048;-85
2022/09/08 12:06:52;;;;;;;11.05;8.88;;;25.40;58.80;;;;;;5096668;28;20028;-90
2022/09/08 12:09:34;;;;;;;10.18;8.77;;;25.40;58.30;;;;;;5096381;28;20124;-87
2022/09/08 12:12:14;;;;;;;24.08;10.40;;;25.30;58.40;;;;;;5094864;28;20035;-79
2022/09/08 12:14:45;;;;;;;16.75;8.95;;;25.40;58.30;;;;;;5096213;28;20062;-82
2022/09/08 12:17:44;;;;;;;10.10;8.57;;;25.40;58.80;;;;;;5095098;28;20054;-79
2022/09/08 12:20:28;;;;;;;12.27;9.70;;;25.50;58.60;;;;;;5111840;28;20477;-79
2022/09/08 12:23:04;;;;;;;9.88;8.98;;;25.40;59.40;;;;;;5096027;28;20378;-79
2022/09/08 12:25:48;;;;;;;10.40;8.88;;;25.40;58.00;;;;;;5095884;28;20095;-79
2022/09/08 12:28:36;;;;;;;13.02;9.40;;;25.30;58.20;;;;;;5094426;28;20050;-90
2022/09/08 12:31:15;;;;;;;11.20;10.05;;;25.30;58.20;;;;;;5094907;28;20032;-78
2022/09/08 12:33:55;;;;;;;12.85;10.57;;;25.50;58.40;;;;;;5095558;28;20260;-82
2022/09/08 12:36:40;;;;;;;13.68;10.20;;;25.50;58.00;;;;;;5095709;28;20027;-78
2022/09/08 12:39:25;;;;;;;13.25;9.73;;;25.50;58.20;;;;;;5094433;28;20062;-79
2022/09/08 12:42:23;;;;;;;12.10;10.00;;;25.60;58.10;;;;;;5095840;28;20024;-78
2022/09/08 12:45:17;;;;;;;13.13;10.02;;;25.80;58.00;;;;;;5094086;28;20497;-90
2022/09/08 12:48:13;;;;;;;13.30;10.15;;;26.00;58.00;;;;;;5094574;28;20062;-79
2022/09/08 12:50:44;;;;;;;15.73;11.52;;;26.10;57.70;;;;;;5095327;28;20116;-78
2022/09/08 12:53:10;;;;;;;15.27;11.25;;;26.10;58.30;;;;;;5095103;28;20032;-80
2022/09/08 12:55:57;;;;;;;28.92;13.93;;;26.10;58.40;;;;;;5094135;28;20512;-90
2022/09/08 12:58:26;;;;;;;13.25;11.13;;;26.00;58.40;;;;;;5095272;28;20062;-79
2022/09/08 13:01:23;;;;;;;12.73;11.43;;;25.90;57.90;;;;;;5095201;28;20485;-79
2022/09/08 13:03:52;;;;;;;12.68;11.43;;;25.80;58.20;;;;;;5094917;28;20085;-79
2022/09/08 13:06:47;;;;;;;17.08;11.18;;;25.70;59.10;;;;;;5093904;28;20024;-88
2022/09/08 13:09:31;;;;;;;14.63;11.18;;;25.70;60.20;;;;;;5094040;28;20016;-78
2022/09/08 13:12:27;;;;;;;19.02;11.98;;;25.80;60.20;;;;;;5095136;28;20051;-78
2022/09/08 13:15:15;;;;;;;12.80;11.32;;;25.80;60.20;;;;;;5073230;28;20032;-79
2022/09/08 13:17:53;;;;;;;13.48;11.52;;;25.70;60.40;;;;;;5090532;28;20059;-78
2022/09/08 13:20:38;;;;;;;16.40;12.25;;;25.50;60.50;;;;;;5090346;28;20020;-78
2022/09/08 13:23:13;;;;;;;18.52;11.30;;;25.50;61.20;;;;;;5074688;28;20024;-88
2022/09/08 13:25:52;;;;;;;15.10;12.02;;;25.50;61.50;;;;;;5074458;28;20470;-89